Dayton, Illinois
Current Conditions -  °F | °C
As of 8:55 AM on Thursday 30 Oct 2014 (Local Time) from KVYS Reporting Station
Clear Clear  
Wind Chill: 37°   Ceiling: Unl
Heat Index: 37°   Visibility: 10mi
Dew Point: 34°   Wind: 3mph
Humidity: 90%   Direction: 180°S
Pressure: 30.14"   Gusts: NA
Location:  41.4349°N, 88.8687°W
Report Text: KVYS 301355Z AUTO 18003KT 10SM CLR 03/01 A3014 RMK AO2 T00270012
Loading
Personal Weather Stations






























Interactive Weather Map
Tropical Storm Tracking
New forecast layout! Learn more

10-Day Weather Forecast

Advertisements
Track Severe Weather on mobile